Time,TemperatureF,DewpointF,PressureIn,WindDirection,WindDirectionDegrees,WindSpeedMPH,WindSpeedGustMPH,Humidity,HourlyPrecipIn,Conditions,Clouds,dailyrainin,SoftwareType,DateUTC
2013-07-31 00:04:00,54.8,51.3,30.13,North,0,0.0,-999.0,87,0.00,,,-99.99,,2013-07-31 08:04:00,
2013-07-31 00:09:00,54.8,51.4,30.13,North,0,0.0,-999.0,88,0.00,,,-99.99,,2013-07-31 08:09:00,
2013-07-31 00:14:00,54.4,51.1,30.13,North,0,0.0,-999.0,88,0.00,,,-99.99,,2013-07-31 08:14:00,
2013-07-31 00:19:00,54.6,51.5,30.13,North,0,0.0,-999.0,89,0.00,,,-99.99,,2013-07-31 08:19:00,
2013-07-31 00:24:00,54.5,51.2,30.13,North,0,0.0,-999.0,88,0.00,,,-99.99,,2013-07-31 08:24:00,
2013-07-31 00:29:00,54.3,51.0,30.13,North,0,0.0,-999.0,88,0.00,,,-99.99,,2013-07-31 08:29:00,
2013-07-31 00:34:00,54.2,51.0,30.13,North,0,0.0,-999.0,89,0.00,,,-99.99,,2013-07-31 08:34:00,
2013-07-31 00:39:00,54.0,50.9,30.13,North,0,0.0,-999.0,88,0.00,,,-99.99,,2013-07-31 08:39:00,
2013-07-31 00:44:00,54.2,51.0,30.13,North,0,0.0,-999.0,88,0.00,,,-99.99,,2013-07-31 08:44:00,
2013-07-31 00:49:00,54.2,51.0,30.13,North,0,0.0,-999.0,88,0.00,,,-99.99,,2013-07-31 08:49:00,
2013-07-31 00:54:00,53.9,50.7,30.13,North,0,0.0,-999.0,88,0.00,,,-99.99,,2013-07-31 08:54:00,
2013-07-31 00:59:00,53.9,50.9,30.13,North,0,0.0,-999.0,89,0.00,,,-99.99,,2013-07-31 08:59:00,
2013-07-31 01:04:00,54.0,51.0,30.13,North,0,0.0,-999.0,89,0.00,,,-99.99,,2013-07-31 09:04:00,
2013-07-31 01:09:00,54.0,51.0,30.13,North,0,0.0,-999.0,89,0.00,,,-99.99,,2013-07-31 09:09:00,
2013-07-31 01:14:00,53.9,51.0,30.13,North,0,0.0,-999.0,89,0.00,,,-99.99,,2013-07-31 09:14:00,
2013-07-31 01:19:00,53.6,50.8,30.13,North,0,0.0,-999.0,90,0.00,,,-99.99,,2013-07-31 09:19:00,
2013-07-31 01:24:00,53.9,51.1,30.13,North,0,0.0,-999.0,90,0.00,,,-99.99,,2013-07-31 09:24:00,
2013-07-31 01:29:00,53.7,51.1,30.13,North,0,0.0,-999.0,90,0.00,,,-99.99,,2013-07-31 09:29:00,
2013-07-31 01:34:00,53.9,51.1,30.13,North,0,0.0,-999.0,90,0.00,,,-99.99,,2013-07-31 09:34:00,
2013-07-31 01:39:00,53.7,50.9,30.13,North,0,0.0,-999.0,90,0.00,,,-99.99,,2013-07-31 09:39:00,
2013-07-31 01:44:00,53.7,51.0,30.13,North,0,0.0,-999.0,90,0.00,,,-99.99,,2013-07-31 09:44:00,
2013-07-31 01:49:00,53.6,50.9,30.13,North,0,0.0,-999.0,90,0.00,,,-99.99,,2013-07-31 09:49:00,
2013-07-31 01:54:00,53.7,51.0,30.13,North,0,0.0,-999.0,90,0.00,,,-99.99,,2013-07-31 09:54:00,
2013-07-31 01:59:00,53.9,51.1,30.13,North,0,0.0,-999.0,90,0.00,,,-99.99,,2013-07-31 09:59:00,
2013-07-31 02:04:00,53.7,51.0,30.13,North,0,0.0,-999.0,90,0.00,,,-99.99,,2013-07-31 10:04:00,
2013-07-31 02:09:00,53.6,50.8,30.13,North,0,0.0,-999.0,90,0.00,,,-99.99,,2013-07-31 10:09:00,
2013-07-31 02:14:00,53.6,50.9,30.13,North,0,0.0,-999.0,90,0.00,,,-99.99,,2013-07-31 10:14:00,
2013-07-31 02:19:00,53.5,50.8,30.13,North,0,0.0,-999.0,90,0.00,,,-99.99,,2013-07-31 10:19:00,
2013-07-31 02:24:00,53.7,51.1,30.13,North,0,0.0,-999.0,90,0.00,,,-99.99,,2013-07-31 10:24:00,
2013-07-31 02:29:00,53.9,51.2,30.13,North,0,0.0,-999.0,90,0.00,,,-99.99,,2013-07-31 10:29:00,
2013-07-31 02:34:00,53.9,51.0,30.13,North,0,0.0,-999.0,90,0.00,,,-99.99,,2013-07-31 10:34:00,
2013-07-31 02:39:00,53.9,51.2,30.13,North,0,0.0,-999.0,90,0.00,,,-99.99,,2013-07-31 10:39:00,
2013-07-31 02:44:00,53.9,51.0,30.13,North,0,0.0,-999.0,89,0.00,,,-99.99,,2013-07-31 10:44:00,
2013-07-31 02:49:00,53.6,50.8,30.13,North,0,0.0,-999.0,90,0.00,,,-99.99,,2013-07-31 10:49:00,
2013-07-31 02:54:00,53.9,51.0,30.13,North,0,0.0,-999.0,89,0.00,,,-99.99,,2013-07-31 10:54:00,
2013-07-31 02:59:00,53.7,51.0,30.13,North,0,0.0,-999.0,90,0.00,,,-99.99,,2013-07-31 10:59:00,
2013-07-31 03:04:00,53.8,51.0,30.13,North,0,0.0,-999.0,90,0.00,,,-99.99,,2013-07-31 11:04:00,
2013-07-31 03:09:00,53.7,51.1,30.13,North,0,0.0,-999.0,90,0.00,,,-99.99,,2013-07-31 11:09:00,
2013-07-31 03:14:00,54.2,51.6,30.13,North,0,0.0,-999.0,90,0.00,,,-99.99,,2013-07-31 11:14:00,
2013-07-31 03:19:00,54.2,51.3,30.13,North,0,0.0,-999.0,90,0.00,,,-99.99,,2013-07-31 11:19:00,
2013-07-31 03:24:00,54.3,51.4,30.13,North,0,0.0,-999.0,89,0.00,,,-99.99,,2013-07-31 11:24:00,
2013-07-31 03:29:00,54.3,51.4,30.13,North,0,0.0,-999.0,89,0.00,,,-99.99,,2013-07-31 11:29:00,
2013-07-31 03:34:00,54.4,51.5,30.13,North,0,0.0,-999.0,89,0.00,,,-99.99,,2013-07-31 11:34:00,
2013-07-31 03:39:00,54.2,51.2,30.13,North,0,0.0,-999.0,89,0.00,,,-99.99,,2013-07-31 11:39:00,
2013-07-31 03:44:00,54.1,51.1,30.13,North,0,0.0,-999.0,89,0.00,,,-99.99,,2013-07-31 11:44:00,
2013-07-31 03:49:00,54.0,51.0,30.13,North,0,0.0,-999.0,89,0.00,,,-99.99,,2013-07-31 11:49:00,
2013-07-31 03:54:00,53.9,50.9,30.13,North,0,0.0,-999.0,89,0.00,,,-99.99,,2013-07-31 11:54:00,
2013-07-31 03:59:00,54.0,50.8,30.13,North,0,0.0,-999.0,88,0.00,,,-99.99,,2013-07-31 11:59:00,
2013-07-31 04:04:00,53.9,51.0,30.12,North,0,0.0,-999.0,89,0.00,,,-99.99,,2013-07-31 12:04:00,
2013-07-31 04:09:00,53.6,50.7,30.12,North,0,0.0,-999.0,89,0.00,,,-99.99,,2013-07-31 12:09:00,
2013-07-31 04:14:00,53.7,51.0,30.12,North,0,0.0,-999.0,90,0.00,,,-99.99,,2013-07-31 12:14:00,
2013-07-31 04:19:00,53.7,51.2,30.12,North,0,0.0,-999.0,91,0.00,,,-99.99,,2013-07-31 12:19:00,
2013-07-31 04:24:00,53.8,51.2,30.12,North,0,0.0,-999.0,90,0.00,,,-99.99,,2013-07-31 12:24:00,
2013-07-31 04:29:00,54.3,51.5,30.12,North,0,0.0,-999.0,90,0.00,,,-99.99,,2013-07-31 12:29:00,
2013-07-31 04:34:00,54.2,51.3,30.12,North,0,0.0,-999.0,89,0.00,,,-99.99,,2013-07-31 12:34:00,
2013-07-31 04:39:00,54.3,51.3,30.12,North,0,0.0,-999.0,89,0.00,,,-99.99,,2013-07-31 12:39:00,
2013-07-31 04:44:00,54.2,51.2,30.12,North,0,0.0,-999.0,89,0.00,,,-99.99,,2013-07-31 12:44:00,
2013-07-31 04:49:00,54.2,51.2,30.12,North,0,0.0,-999.0,89,0.00,,,-99.99,,2013-07-31 12:49:00,
2013-07-31 04:54:00,54.2,51.2,30.12,North,0,0.0,-999.0,89,0.00,,,-99.99,,2013-07-31 12:54:00,
2013-07-31 04:59:00,54.4,51.3,30.12,North,0,0.0,-999.0,89,0.00,,,-99.99,,2013-07-31 12:59:00,
2013-07-31 05:04:00,54.4,51.4,30.11,North,0,0.0,-999.0,89,0.00,,,-99.99,,2013-07-31 13:04:00,
2013-07-31 05:09:00,54.7,51.3,30.11,North,0,0.0,-999.0,88,0.00,,,-99.99,,2013-07-31 13:09:00,
2013-07-31 05:14:00,54.4,50.8,30.11,North,0,0.0,-999.0,87,0.00,,,-99.99,,2013-07-31 13:14:00,
2013-07-31 05:19:00,54.5,51.1,30.11,North,0,0.0,-999.0,87,0.00,,,-99.99,,2013-07-31 13:19:00,
2013-07-31 05:24:00,54.2,50.8,30.11,North,0,0.0,-999.0,87,0.00,,,-99.99,,2013-07-31 13:24:00,
2013-07-31 05:29:00,54.1,50.8,30.11,North,0,0.0,-999.0,88,0.00,,,-99.99,,2013-07-31 13:29:00,
2013-07-31 05:34:00,54.1,50.8,30.11,North,0,0.0,-999.0,88,0.00,,,-99.99,,2013-07-31 13:34:00,
2013-07-31 05:39:00,54.0,50.8,30.11,North,0,0.0,-999.0,88,0.00,,,-99.99,,2013-07-31 13:39:00,
2013-07-31 05:44:00,54.4,50.9,30.11,North,0,0.0,-999.0,88,0.00,,,-99.99,,2013-07-31 13:44:00,
2013-07-31 05:49:00,54.4,50.9,30.11,North,0,0.0,-999.0,87,0.00,,,-99.99,,2013-07-31 13:49:00,
2013-07-31 05:54:00,54.5,51.1,30.11,North,0,0.0,-999.0,88,0.00,,,-99.99,,2013-07-31 13:54:00,
2013-07-31 05:59:00,54.7,51.0,30.11,North,0,0.0,-999.0,87,0.00,,,-99.99,,2013-07-31 13:59:00,
2013-07-31 06:04:00,54.6,51.2,30.11,North,0,0.0,-999.0,88,0.00,,,-99.99,,2013-07-31 14:04:00,
2013-07-31 06:09:00,54.5,51.2,30.11,North,0,0.0,-999.0,88,0.00,,,-99.99,,2013-07-31 14:09:00,
2013-07-31 06:14:00,54.5,51.3,30.11,North,0,0.0,-999.0,88,0.00,,,-99.99,,2013-07-31 14:14:00,
2013-07-31 06:19:00,54.5,51.4,30.11,North,0,0.0,-999.0,89,0.00,,,-99.99,,2013-07-31 14:19:00,
2013-07-31 06:24:00,54.6,51.4,30.11,North,0,0.0,-999.0,88,0.00,,,-99.99,,2013-07-31 14:24:00,
2013-07-31 06:29:00,55.2,52.0,30.11,North,0,0.0,-999.0,88,0.00,,,-99.99,,2013-07-31 14:29:00,
2013-07-31 06:34:00,55.0,51.6,30.11,North,0,0.0,-999.0,88,0.00,,,-99.99,,2013-07-31 14:34:00,
2013-07-31 06:39:00,54.9,51.7,30.11,North,0,0.0,-999.0,88,0.00,,,-99.99,,2013-07-31 14:39:00,
2013-07-31 06:44:00,54.9,51.8,30.11,North,0,0.0,-999.0,89,0.00,,,-99.99,,2013-07-31 14:44:00,
2013-07-31 06:49:00,55.3,52.0,30.11,North,0,0.0,-999.0,88,0.00,,,-99.99,,2013-07-31 14:49:00,
2013-07-31 06:54:00,55.3,52.0,30.11,North,0,0.0,-999.0,88,0.00,,,-99.99,,2013-07-31 14:54:00,
2013-07-31 06:59:00,55.2,51.9,30.11,North,0,0.0,-999.0,88,0.00,,,-99.99,,2013-07-31 14:59:00,
2013-07-31 07:04:00,55.3,51.9,30.09,North,0,0.0,-999.0,88,0.00,,,-99.99,,2013-07-31 15:04:00,
2013-07-31 07:09:00,55.3,52.0,30.09,North,0,0.0,-999.0,88,0.00,,,-99.99,,2013-07-31 15:09:00,
2013-07-31 07:14:00,55.6,52.2,30.09,North,0,0.0,-999.0,88,0.00,,,-99.99,,2013-07-31 15:14:00,
2013-07-31 07:19:00,55.4,51.9,30.09,North,0,0.0,-999.0,87,0.00,,,-99.99,,2013-07-31 15:19:00,
2013-07-31 07:24:00,55.5,52.1,30.09,North,0,0.0,-999.0,88,0.00,,,-99.99,,2013-07-31 15:24:00,
2013-07-31 07:29:00,55.8,52.1,30.09,North,0,0.0,-999.0,87,0.00,,,-99.99,,2013-07-31 15:29:00,
2013-07-31 07:34:00,56.3,52.4,30.09,North,0,0.0,-999.0,86,0.00,,,-99.99,,2013-07-31 15:34:00,
2013-07-31 07:39:00,57.8,52.8,30.09,North,0,0.0,-999.0,83,0.00,,,-99.99,,2013-07-31 15:39:00,
2013-07-31 07:44:00,58.2,52.6,30.09,North,0,0.0,-999.0,81,0.00,,,-99.99,,2013-07-31 15:44:00,
2013-07-31 07:49:00,58.1,52.4,30.09,North,0,0.0,-999.0,81,0.00,,,-99.99,,2013-07-31 15:49:00,
2013-07-31 07:54:00,58.7,52.8,30.09,North,0,0.0,-999.0,80,0.00,,,-99.99,,2013-07-31 15:54:00,
2013-07-31 07:59:00,59.2,52.8,30.09,North,0,0.0,-999.0,79,0.00,,,-99.99,,2013-07-31 15:59:00,
2013-07-31 08:04:00,59.3,52.3,30.11,North,0,0.0,-999.0,77,0.00,,,-99.99,,2013-07-31 16:04:00,
2013-07-31 08:09:00,59.7,52.5,30.11,North,0,0.0,-999.0,77,0.00,,,-99.99,,2013-07-31 16:09:00,
2013-07-31 08:10:00,59.8,52.6,30.11,North,0,0.0,-999.0,77,0.00,,,-99.99,,2013-07-31 16:10:00,
2013-07-31 08:15:00,59.5,52.5,30.11,North,0,0.0,-999.0,77,0.00,,,-99.99,,2013-07-31 16:15:00,
2013-07-31 08:20:00,58.7,52.3,30.11,North,0,0.0,-999.0,79,0.00,,,-99.99,,2013-07-31 16:20:00,
2013-07-31 08:25:00,58.7,52.3,30.11,North,0,0.0,-999.0,79,0.00,,,-99.99,,2013-07-31 16:25:00,
2013-07-31 08:30:00,58.6,52.5,30.11,North,0,0.0,-999.0,80,0.00,,,-99.99,,2013-07-31 16:30:00,
2013-07-31 08:35:00,58.7,52.3,30.11,North,0,0.0,-999.0,79,0.00,,,-99.99,,2013-07-31 16:35:00,
2013-07-31 08:40:00,58.2,52.1,30.11,North,0,0.0,-999.0,79,0.00,,,-99.99,,2013-07-31 16:40:00,
2013-07-31 08:45:00,58.0,52.2,30.11,North,0,0.0,-999.0,80,0.00,,,-99.99,,2013-07-31 16:45:00,
2013-07-31 08:50:00,57.5,52.2,30.11,North,0,0.0,-999.0,82,0.00,,,-99.99,,2013-07-31 16:50:00,
2013-07-31 08:55:00,57.8,52.4,30.11,North,0,0.0,-999.0,82,0.00,,,-99.99,,2013-07-31 16:55:00,
2013-07-31 09:00:00,57.6,52.4,30.11,North,0,0.0,-999.0,82,0.00,,,-99.99,,2013-07-31 17:00:00,
2013-07-31 09:05:00,57.8,52.5,30.11,North,0,0.0,-999.0,82,0.00,,,-99.99,,2013-07-31 17:05:00,
2013-07-31 09:10:00,57.3,52.4,30.11,North,0,0.0,-999.0,83,0.00,,,-99.99,,2013-07-31 17:10:00,
2013-07-31 09:15:00,57.4,52.4,30.11,North,0,0.0,-999.0,83,0.00,,,-99.99,,2013-07-31 17:15:00,
2013-07-31 09:20:00,57.3,52.3,30.11,North,0,0.0,-999.0,83,0.00,,,-99.99,,2013-07-31 17:20:00,
2013-07-31 09:25:00,57.4,52.7,30.11,North,0,0.0,-999.0,83,0.00,,,-99.99,,2013-07-31 17:25:00,
2013-07-31 09:30:00,57.6,52.5,30.11,North,0,0.0,-999.0,83,0.00,,,-99.99,,2013-07-31 17:30:00,
2013-07-31 09:35:00,57.6,52.4,30.11,North,0,0.0,-999.0,82,0.00,,,-99.99,,2013-07-31 17:35:00,
2013-07-31 09:40:00,57.8,52.6,30.11,North,0,0.0,-999.0,82,0.00,,,-99.99,,2013-07-31 17:40:00,
2013-07-31 09:45:00,58.6,52.8,30.11,North,0,0.0,-999.0,81,0.00,,,-99.99,,2013-07-31 17:45:00,
2013-07-31 09:50:00,58.9,52.9,30.11,North,0,0.0,-999.0,80,0.00,,,-99.99,,2013-07-31 17:50:00,
2013-07-31 09:55:00,58.8,52.8,30.11,North,0,0.0,-999.0,80,0.00,,,-99.99,,2013-07-31 17:55:00,
2013-07-31 10:01:00,59.0,53.1,30.09,North,0,0.0,-999.0,80,0.00,,,-99.99,,2013-07-31 18:01:00,
2013-07-31 10:07:00,60.0,53.2,30.09,North,0,0.0,-999.0,78,0.00,,,-99.99,,2013-07-31 18:07:00,
2013-07-31 10:12:00,60.0,53.2,30.09,North,0,0.0,-999.0,78,0.00,,,-99.99,,2013-07-31 18:12:00,
2013-07-31 10:18:00,60.0,53.4,30.09,North,0,0.0,-999.0,78,0.00,,,-99.99,,2013-07-31 18:18:00,
2013-07-31 10:24:00,59.9,53.2,30.09,North,0,0.0,-999.0,78,0.00,,,-99.99,,2013-07-31 18:24:00,
2013-07-31 10:29:00,60.1,53.5,30.09,North,0,0.0,-999.0,78,0.00,,,-99.99,,2013-07-31 18:29:00,
2013-07-31 10:35:00,60.1,53.5,30.09,North,0,0.0,-999.0,78,0.00,,,-99.99,,2013-07-31 18:35:00,
2013-07-31 10:40:00,60.6,53.8,30.09,North,0,0.0,-999.0,78,0.00,,,-99.99,,2013-07-31 18:40:00,
2013-07-31 10:45:00,60.0,53.1,30.09,North,0,0.0,-999.0,77,0.00,,,-99.99,,2013-07-31 18:45:00,
2013-07-31 10:50:00,60.0,53.5,30.09,North,0,0.0,-999.0,78,0.00,,,-99.99,,2013-07-31 18:50:00,
2013-07-31 10:55:00,59.6,53.4,30.09,North,0,0.0,-999.0,79,0.00,,,-99.99,,2013-07-31 18:55:00,
2013-07-31 11:00:00,59.0,53.4,30.11,North,0,0.0,-999.0,81,0.00,,,-99.99,,2013-07-31 19:00:00,
2013-07-31 11:05:00,58.7,53.2,30.11,North,0,0.0,-999.0,82,0.00,,,-99.99,,2013-07-31 19:05:00,
2013-07-31 11:10:00,59.5,53.6,30.11,North,0,0.0,-999.0,80,0.00,,,-99.99,,2013-07-31 19:10:00,
2013-07-31 11:15:00,59.8,54.0,30.11,North,0,0.0,-999.0,81,0.00,,,-99.99,,2013-07-31 19:15:00,
2013-07-31 11:20:00,59.3,53.9,30.11,North,0,0.0,-999.0,82,0.00,,,-99.99,,2013-07-31 19:20:00,
2013-07-31 11:25:00,59.3,53.8,30.11,North,0,0.0,-999.0,82,0.00,,,-99.99,,2013-07-31 19:25:00,
2013-07-31 11:30:00,59.5,54.2,30.11,North,0,0.0,-999.0,82,0.00,,,-99.99,,2013-07-31 19:30:00,
2013-07-31 11:35:00,59.3,54.1,30.11,North,0,0.0,-999.0,82,0.00,,,-99.99,,2013-07-31 19:35:00,
2013-07-31 11:40:00,58.8,54.3,30.11,North,0,0.0,-999.0,84,0.00,,,-99.99,,2013-07-31 19:40:00,
2013-07-31 11:45:00,59.3,54.4,30.11,North,0,0.0,-999.0,83,0.00,,,-99.99,,2013-07-31 19:45:00,
2013-07-31 11:50:00,59.9,54.7,30.11,North,0,0.0,-999.0,82,0.00,,,-99.99,,2013-07-31 19:50:00,
2013-07-31 11:55:00,59.7,54.5,30.11,North,0,0.0,-999.0,82,0.00,,,-99.99,,2013-07-31 19:55:00,
2013-07-31 12:00:00,60.1,54.7,30.11,North,0,0.0,-999.0,82,0.00,,,-99.99,,2013-07-31 20:00:00,
2013-07-31 12:05:00,58.7,53.8,30.11,North,0,0.0,-999.0,83,0.00,,,-99.99,,2013-07-31 20:05:00,
2013-07-31 12:10:00,57.9,54.1,30.11,North,0,0.0,-999.0,87,0.00,,,-99.99,,2013-07-31 20:10:00,
2013-07-31 12:15:00,58.3,54.9,30.11,North,0,0.0,-999.0,88,0.00,,,-99.99,,2013-07-31 20:15:00,
2013-07-31 12:20:00,57.6,54.5,30.11,North,0,0.0,-999.0,89,0.00,,,-99.99,,2013-07-31 20:20:00,
2013-07-31 12:25:00,58.0,55.3,30.11,North,0,0.0,-999.0,90,0.00,,,-99.99,,2013-07-31 20:25:00,
2013-07-31 12:30:00,58.4,54.9,30.11,North,0,0.0,-999.0,88,0.00,,,-99.99,,2013-07-31 20:30:00,
2013-07-31 12:35:00,58.2,54.8,30.11,North,0,0.0,-999.0,88,0.00,,,-99.99,,2013-07-31 20:35:00,
2013-07-31 12:40:00,58.9,54.8,30.11,North,0,0.0,-999.0,86,0.00,,,-99.99,,2013-07-31 20:40:00,
2013-07-31 12:45:00,59.4,54.5,30.11,North,0,0.0,-999.0,83,0.00,,,-99.99,,2013-07-31 20:45:00,
2013-07-31 12:50:00,59.9,54.6,30.11,North,0,0.0,-999.0,82,0.00,,,-99.99,,2013-07-31 20:50:00,
2013-07-31 12:55:00,59.4,54.4,30.11,North,0,0.0,-999.0,83,0.00,,,-99.99,,2013-07-31 20:55:00,
2013-07-31 13:00:00,58.4,54.1,30.11,North,0,0.0,-999.0,85,0.00,,,-99.99,,2013-07-31 21:00:00,
2013-07-31 13:05:00,58.3,54.3,30.11,North,0,0.0,-999.0,86,0.00,,,-99.99,,2013-07-31 21:05:00,
2013-07-31 13:10:00,58.1,54.2,30.11,North,0,0.0,-999.0,86,0.00,,,-99.99,,2013-07-31 21:10:00,
2013-07-31 13:15:00,57.8,53.6,30.11,North,0,0.0,-999.0,85,0.00,,,-99.99,,2013-07-31 21:15:00,
2013-07-31 13:20:00,57.9,54.1,30.11,North,0,0.0,-999.0,87,0.00,,,-99.99,,2013-07-31 21:20:00,
2013-07-31 13:25:00,59.3,54.5,30.11,North,0,0.0,-999.0,84,0.00,,,-99.99,,2013-07-31 21:25:00,
2013-07-31 13:30:00,59.2,54.5,30.11,North,0,0.0,-999.0,84,0.00,,,-99.99,,2013-07-31 21:30:00,
2013-07-31 13:35:00,59.5,54.8,30.11,North,0,0.0,-999.0,84,0.00,,,-99.99,,2013-07-31 21:35:00,
2013-07-31 13:40:00,61.2,55.2,30.11,North,0,0.0,-999.0,80,0.00,,,-99.99,,2013-07-31 21:40:00,
2013-07-31 13:45:00,61.7,54.8,30.11,North,0,0.0,-999.0,77,0.00,,,-99.99,,2013-07-31 21:45:00,
2013-07-31 13:50:00,60.8,54.9,30.11,North,0,0.0,-999.0,80,0.00,,,-99.99,,2013-07-31 21:50:00,
2013-07-31 13:55:00,60.7,54.7,30.11,North,0,0.0,-999.0,80,0.00,,,-99.99,,2013-07-31 21:55:00,
2013-07-31 14:00:00,60.7,54.8,30.11,North,0,0.0,-999.0,80,0.00,,,-99.99,,2013-07-31 22:00:00,
2013-07-31 14:05:00,60.3,54.6,30.11,North,0,0.0,-999.0,81,0.00,,,-99.99,,2013-07-31 22:05:00,
2013-07-31 14:10:00,60.6,55.3,30.11,North,0,0.0,-999.0,82,0.00,,,-99.99,,2013-07-31 22:10:00,
2013-07-31 14:15:00,60.6,54.9,30.11,North,0,0.0,-999.0,81,0.00,,,-99.99,,2013-07-31 22:15:00,
2013-07-31 14:20:00,60.4,55.3,30.11,North,0,0.0,-999.0,83,0.00,,,-99.99,,2013-07-31 22:20:00,
2013-07-31 14:25:00,61.6,55.3,30.11,North,0,0.0,-999.0,79,0.00,,,-99.99,,2013-07-31 22:25:00,
2013-07-31 14:30:00,61.6,54.7,30.11,North,0,0.0,-999.0,78,0.00,,,-99.99,,2013-07-31 22:30:00,
2013-07-31 14:35:00,61.9,55.3,30.11,North,0,0.0,-999.0,78,0.00,,,-99.99,,2013-07-31 22:35:00,
2013-07-31 14:40:00,62.0,55.3,30.11,North,0,0.0,-999.0,78,0.00,,,-99.99,,2013-07-31 22:40:00,
2013-07-31 14:45:00,62.0,55.2,30.11,North,0,0.0,-999.0,78,0.00,,,-99.99,,2013-07-31 22:45:00,
2013-07-31 14:50:00,62.5,55.3,30.11,North,0,0.0,-999.0,77,0.00,,,-99.99,,2013-07-31 22:50:00,
2013-07-31 14:55:00,63.8,55.6,30.11,North,0,0.0,-999.0,74,0.00,,,-99.99,,2013-07-31 22:55:00,
2013-07-31 15:00:00,63.1,55.3,30.10,North,0,0.0,-999.0,75,0.00,,,-99.99,,2013-07-31 23:00:00,
2013-07-31 15:05:00,62.8,55.3,30.10,North,0,0.0,-999.0,76,0.00,,,-99.99,,2013-07-31 23:05:00,
2013-07-31 15:10:00,61.3,54.6,30.10,North,0,0.0,-999.0,78,0.00,,,-99.99,,2013-07-31 23:10:00,
2013-07-31 15:15:00,61.6,55.2,30.10,North,0,0.0,-999.0,79,0.00,,,-99.99,,2013-07-31 23:15:00,
2013-07-31 15:20:00,62.4,55.0,30.10,North,0,0.0,-999.0,76,0.00,,,-99.99,,2013-07-31 23:20:00,
2013-07-31 15:25:00,61.9,54.7,30.10,North,0,0.0,-999.0,77,0.00,,,-99.99,,2013-07-31 23:25:00,
2013-07-31 15:31:00,61.3,54.6,30.10,North,0,0.0,-999.0,78,0.00,,,-99.99,,2013-07-31 23:31:00,
2013-07-31 15:36:00,61.0,54.8,30.10,North,0,0.0,-999.0,79,0.00,,,-99.99,,2013-07-31 23:36:00,
2013-07-31 15:41:00,61.0,54.6,30.10,North,0,0.0,-999.0,79,0.00,,,-99.99,,2013-07-31 23:41:00,
2013-07-31 15:46:00,60.6,54.8,30.10,North,0,0.0,-999.0,80,0.00,,,-99.99,,2013-07-31 23:46:00,
2013-07-31 15:51:00,60.9,54.5,30.10,North,0,0.0,-999.0,79,0.00,,,-99.99,,2013-07-31 23:51:00,
2013-07-31 15:56:00,61.0,54.7,30.10,North,0,0.0,-999.0,79,0.00,,,-99.99,,2013-07-31 23:56:00,
2013-07-31 16:01:00,62.0,55.2,30.09,North,0,0.0,-999.0,78,0.00,,,-99.99,,2013-08-01 00:01:00,
2013-07-31 16:06:00,62.0,54.9,30.09,North,0,0.0,-999.0,77,0.00,,,-99.99,,2013-08-01 00:06:00,
2013-07-31 16:11:00,62.1,55.0,30.09,North,0,0.0,-999.0,77,0.00,,,-99.99,,2013-08-01 00:11:00,
2013-07-31 16:16:00,62.5,55.0,30.09,North,0,0.0,-999.0,76,0.00,,,-99.99,,2013-08-01 00:16:00,
2013-07-31 16:21:00,62.2,54.8,30.09,North,0,0.0,-999.0,76,0.00,,,-99.99,,2013-08-01 00:21:00,
2013-07-31 16:26:00,61.7,54.9,30.09,North,0,0.0,-999.0,78,0.00,,,-99.99,,2013-08-01 00:26:00,
2013-07-31 16:31:00,61.0,54.7,30.09,North,0,0.0,-999.0,79,0.00,,,-99.99,,2013-08-01 00:31:00,
2013-07-31 16:36:00,60.6,54.9,30.09,North,0,0.0,-999.0,81,0.00,,,-99.99,,2013-08-01 00:36:00,
2013-07-31 16:41:00,60.9,54.7,30.09,North,0,0.0,-999.0,79,0.00,,,-99.99,,2013-08-01 00:41:00,
2013-07-31 16:46:00,60.1,54.4,30.09,North,0,0.0,-999.0,81,0.00,,,-99.99,,2013-08-01 00:46:00,
2013-07-31 16:51:00,59.8,54.5,30.09,North,0,0.0,-999.0,82,0.00,,,-99.99,,2013-08-01 00:51:00,
2013-07-31 16:56:00,60.2,54.7,30.09,North,0,0.0,-999.0,81,0.00,,,-99.99,,2013-08-01 00:56:00,
2013-07-31 17:01:00,60.1,54.5,30.08,North,0,0.0,-999.0,81,0.00,,,-99.99,,2013-08-01 01:01:00,
2013-07-31 17:06:00,60.1,54.3,30.08,North,0,0.0,-999.0,80,0.00,,,-99.99,,2013-08-01 01:06:00,
2013-07-31 17:11:00,60.4,55.0,30.08,North,0,0.0,-999.0,82,0.00,,,-99.99,,2013-08-01 01:11:00,
2013-07-31 17:16:00,60.3,54.5,30.08,North,0,0.0,-999.0,81,0.00,,,-99.99,,2013-08-01 01:16:00,
2013-07-31 17:21:00,61.2,54.7,30.08,North,0,0.0,-999.0,79,0.00,,,-99.99,,2013-08-01 01:21:00,
2013-07-31 17:26:00,61.1,54.7,30.08,North,0,0.0,-999.0,79,0.00,,,-99.99,,2013-08-01 01:26:00,
2013-07-31 17:33:00,60.7,54.5,30.08,North,0,0.0,-999.0,79,0.00,,,-99.99,,2013-08-01 01:33:00,
2013-07-31 17:38:00,60.7,54.5,30.08,North,0,0.0,-999.0,79,0.00,,,-99.99,,2013-08-01 01:38:00,
2013-07-31 17:43:00,60.2,54.5,30.08,North,0,0.0,-999.0,81,0.00,,,-99.99,,2013-08-01 01:43:00,
2013-07-31 17:48:00,59.8,54.5,30.08,North,0,0.0,-999.0,82,0.00,,,-99.99,,2013-08-01 01:48:00,
2013-07-31 17:54:00,60.2,54.7,30.08,North,0,0.0,-999.0,81,0.00,,,-99.99,,2013-08-01 01:54:00,
2013-07-31 17:59:00,59.8,54.2,30.08,North,0,0.0,-999.0,81,0.00,,,-99.99,,2013-08-01 01:59:00,
2013-07-31 18:04:00,59.8,54.4,30.07,North,0,0.0,-999.0,82,0.00,,,-99.99,,2013-08-01 02:04:00,
2013-07-31 18:06:00,59.9,54.5,30.07,North,0,0.0,-999.0,82,0.00,,,-99.99,,2013-08-01 02:06:00,
2013-07-31 18:11:00,59.7,54.1,30.07,North,0,0.0,-999.0,81,0.00,,,-99.99,,2013-08-01 02:11:00,
2013-07-31 18:16:00,59.4,54.3,30.07,North,0,0.0,-999.0,82,0.00,,,-99.99,,2013-08-01 02:16:00,
2013-07-31 18:21:00,59.5,54.6,30.07,North,0,0.0,-999.0,83,0.00,,,-99.99,,2013-08-01 02:21:00,
2013-07-31 18:26:00,59.6,54.1,30.07,North,0,0.0,-999.0,81,0.00,,,-99.99,,2013-08-01 02:26:00,
2013-07-31 18:31:00,58.6,53.9,30.07,North,0,0.0,-999.0,84,0.00,,,-99.99,,2013-08-01 02:31:00,
2013-07-31 18:36:00,59.1,54.1,30.07,North,0,0.0,-999.0,83,0.00,,,-99.99,,2013-08-01 02:36:00,
2013-07-31 18:41:00,59.0,54.1,30.07,North,0,0.0,-999.0,83,0.00,,,-99.99,,2013-08-01 02:41:00,
2013-07-31 18:46:00,58.7,54.2,30.07,North,0,0.0,-999.0,85,0.00,,,-99.99,,2013-08-01 02:46:00,
2013-07-31 18:51:00,58.6,53.8,30.07,North,0,0.0,-999.0,84,0.00,,,-99.99,,2013-08-01 02:51:00,
2013-07-31 18:56:00,58.0,53.8,30.07,North,0,0.0,-999.0,85,0.00,,,-99.99,,2013-08-01 02:56:00,
2013-07-31 19:01:00,58.3,54.0,30.06,North,0,0.0,-999.0,85,0.00,,,-99.99,,2013-08-01 03:01:00,
2013-07-31 19:06:00,57.9,53.7,30.06,North,0,0.0,-999.0,85,0.00,,,-99.99,,2013-08-01 03:06:00,
2013-07-31 19:11:00,58.2,54.0,30.06,North,0,0.0,-999.0,85,0.00,,,-99.99,,2013-08-01 03:11:00,
2013-07-31 19:16:00,58.5,54.1,30.06,North,0,0.0,-999.0,85,0.00,,,-99.99,,2013-08-01 03:16:00,
2013-07-31 19:21:00,57.7,53.6,30.06,North,0,0.0,-999.0,86,0.00,,,-99.99,,2013-08-01 03:21:00,
2013-07-31 19:26:00,58.1,53.7,30.06,North,0,0.0,-999.0,85,0.00,,,-99.99,,2013-08-01 03:26:00,
2013-07-31 19:31:00,58.0,53.9,30.06,North,0,0.0,-999.0,85,0.00,,,-99.99,,2013-08-01 03:31:00,
2013-07-31 19:36:00,58.2,54.0,30.06,North,0,0.0,-999.0,85,0.00,,,-99.99,,2013-08-01 03:36:00,
2013-07-31 19:41:00,58.3,53.8,30.06,North,0,0.0,-999.0,84,0.00,,,-99.99,,2013-08-01 03:41:00,
2013-07-31 19:46:00,58.1,53.8,30.06,North,0,0.0,-999.0,85,0.00,,,-99.99,,2013-08-01 03:46:00,
2013-07-31 19:51:00,58.2,53.8,30.06,North,0,0.0,-999.0,85,0.00,,,-99.99,,2013-08-01 03:51:00,
2013-07-31 19:56:00,57.7,53.7,30.06,North,0,0.0,-999.0,86,0.00,,,-99.99,,2013-08-01 03:56:00,
2013-07-31 20:02:00,57.3,53.4,30.05,North,0,0.0,-999.0,86,0.00,,,-99.99,,2013-08-01 04:02:00,
2013-07-31 20:03:00,57.4,53.7,30.05,North,0,0.0,-999.0,87,0.00,,,-99.99,,2013-08-01 04:03:00,
2013-07-31 20:04:00,57.2,53.5,30.05,North,0,0.0,-999.0,87,0.00,,,-99.99,,2013-08-01 04:04:00,
2013-07-31 20:06:00,57.3,53.7,30.05,North,0,0.0,-999.0,87,0.00,,,-99.99,,2013-08-01 04:06:00,
2013-07-31 20:08:00,57.4,53.7,30.05,North,0,0.0,-999.0,87,0.00,,,-99.99,,2013-08-01 04:08:00,
2013-07-31 20:13:00,57.1,53.7,30.05,North,0,0.0,-999.0,88,0.00,,,-99.99,,2013-08-01 04:13:00,
2013-07-31 20:18:00,57.1,53.5,30.05,North,0,0.0,-999.0,87,0.00,,,-99.99,,2013-08-01 04:18:00,
2013-07-31 20:23:00,57.0,53.5,30.05,North,0,0.0,-999.0,87,0.00,,,-99.99,,2013-08-01 04:23:00,
2013-07-31 20:28:00,57.0,53.7,30.05,North,0,0.0,-999.0,88,0.00,,,-99.99,,2013-08-01 04:28:00,
2013-07-31 20:33:00,57.2,53.7,30.05,North,0,0.0,-999.0,88,0.00,,,-99.99,,2013-08-01 04:33:00,
2013-07-31 20:38:00,57.2,53.7,30.05,North,0,0.0,-999.0,87,0.00,,,-99.99,,2013-08-01 04:38:00,
2013-07-31 20:43:00,56.7,53.4,30.05,North,0,0.0,-999.0,88,0.00,,,-99.99,,2013-08-01 04:43:00,
2013-07-31 20:48:00,56.6,53.4,30.05,North,0,0.0,-999.0,88,0.00,,,-99.99,,2013-08-01 04:48:00,
2013-07-31 20:53:00,56.6,53.4,30.05,North,0,0.0,-999.0,88,0.00,,,-99.99,,2013-08-01 04:53:00,
2013-07-31 20:58:00,56.6,53.5,30.05,North,0,0.0,-999.0,89,0.00,,,-99.99,,2013-08-01 04:58:00,
2013-07-31 21:03:00,56.6,53.3,30.05,North,0,0.0,-999.0,88,0.00,,,-99.99,,2013-08-01 05:03:00,
2013-07-31 21:08:00,56.7,53.4,30.05,North,0,0.0,-999.0,88,0.00,,,-99.99,,2013-08-01 05:08:00,
2013-07-31 21:13:00,57.0,53.4,30.05,North,0,0.0,-999.0,87,0.00,,,-99.99,,2013-08-01 05:13:00,
2013-07-31 21:18:00,56.9,53.1,30.05,North,0,0.0,-999.0,87,0.00,,,-99.99,,2013-08-01 05:18:00,
2013-07-31 21:23:00,56.7,53.0,30.05,North,0,0.0,-999.0,87,0.00,,,-99.99,,2013-08-01 05:23:00,
2013-07-31 21:28:00,56.3,53.2,30.05,North,0,0.0,-999.0,89,0.00,,,-99.99,,2013-08-01 05:28:00,
2013-07-31 21:33:00,56.3,53.2,30.05,North,0,0.0,-999.0,89,0.00,,,-99.99,,2013-08-01 05:33:00,
2013-07-31 21:38:00,56.5,53.4,30.05,North,0,0.0,-999.0,89,0.00,,,-99.99,,2013-08-01 05:38:00,
2013-07-31 21:44:00,56.7,53.1,30.05,North,0,0.0,-999.0,87,0.00,,,-99.99,,2013-08-01 05:44:00,
2013-07-31 21:50:00,56.3,53.3,30.05,North,0,0.0,-999.0,89,0.00,,,-99.99,,2013-08-01 05:50:00,
2013-07-31 21:55:00,55.9,52.8,30.05,North,0,0.0,-999.0,89,0.00,,,-99.99,,2013-08-01 05:55:00,
2013-07-31 22:00:00,56.1,53.1,30.04,North,0,0.0,-999.0,89,0.00,,,-99.99,,2013-08-01 06:00:00,
2013-07-31 22:05:00,56.0,53.0,30.04,North,0,0.0,-999.0,89,0.00,,,-99.99,,2013-08-01 06:05:00,
2013-07-31 22:10:00,55.8,52.8,30.04,North,0,0.0,-999.0,89,0.00,,,-99.99,,2013-08-01 06:10:00,
2013-07-31 22:15:00,55.5,52.9,30.04,North,0,0.0,-999.0,90,0.00,,,-99.99,,2013-08-01 06:15:00,
2013-07-31 22:20:00,55.4,52.8,30.04,North,0,0.0,-999.0,90,0.00,,,-99.99,,2013-08-01 06:20:00,
2013-07-31 22:25:00,55.6,52.9,30.04,North,0,0.0,-999.0,90,0.00,,,-99.99,,2013-08-01 06:25:00,
2013-07-31 22:30:00,55.6,52.8,30.04,North,0,0.0,-999.0,89,0.00,,,-99.99,,2013-08-01 06:30:00,
2013-07-31 22:35:00,55.5,52.9,30.04,North,0,0.0,-999.0,91,0.00,,,-99.99,,2013-08-01 06:35:00,
2013-07-31 22:40:00,55.5,52.9,30.04,North,0,0.0,-999.0,90,0.00,,,-99.99,,2013-08-01 06:40:00,
2013-07-31 22:45:00,55.4,52.7,30.04,North,0,0.0,-999.0,90,0.00,,,-99.99,,2013-08-01 06:45:00,
2013-07-31 22:51:00,55.4,52.9,30.04,North,0,0.0,-999.0,91,0.00,,,-99.99,,2013-08-01 06:51:00,
2013-07-31 22:56:00,55.3,53.0,30.04,North,0,0.0,-999.0,91,0.00,,,-99.99,,2013-08-01 06:56:00,
2013-07-31 23:01:00,55.6,53.2,30.02,North,0,0.0,-999.0,91,0.00,,,-99.99,,2013-08-01 07:01:00,
2013-07-31 23:06:00,55.4,52.9,30.02,North,0,0.0,-999.0,91,0.00,,,-99.99,,2013-08-01 07:06:00,
2013-07-31 23:11:00,55.2,53.0,30.02,North,0,0.0,-999.0,91,0.00,,,-99.99,,2013-08-01 07:11:00,
2013-07-31 23:16:00,55.0,52.6,30.02,North,0,0.0,-999.0,91,0.00,,,-99.99,,2013-08-01 07:16:00,
2013-07-31 23:21:00,55.6,53.3,30.02,North,0,0.0,-999.0,91,0.00,,,-99.99,,2013-08-01 07:21:00,
2013-07-31 23:26:00,55.2,53.1,30.02,North,0,0.0,-999.0,92,0.00,,,-99.99,,2013-08-01 07:26:00,
2013-07-31 23:31:00,54.9,52.9,30.02,North,0,0.0,-999.0,92,0.00,,,-99.99,,2013-08-01 07:31:00,
2013-07-31 23:36:00,54.4,52.6,30.02,North,0,0.0,-999.0,93,0.00,,,-99.99,,2013-08-01 07:36:00,
2013-07-31 23:41:00,54.6,53.0,30.02,North,0,0.0,-999.0,94,0.00,,,-99.99,,2013-08-01 07:41:00,
2013-07-31 23:46:00,54.7,53.1,30.02,North,0,0.0,-999.0,94,0.00,,,-99.99,,2013-08-01 07:46:00,
2013-07-31 23:53:00,54.5,52.9,30.02,North,0,0.0,-999.0,94,0.00,,,-99.99,,2013-08-01 07:53:00,
2013-07-31 23:59:00,54.2,52.8,30.02,North,0,0.0,-999.0,94,0.00,,,-99.99,,2013-08-01 07:59:00,